Terminal Aerodrome Forecast
Issued by NWS Grand Forks, ND

Home | Current Version | Previous Version | Graphics & Text | Print | Product List | Glossary On
Versions: 1 2 3 4 5 6 7 8 9 10 11 12 13 14 15 16 17 18
000
FTUS43 KFGF 261300 AAA
TAFFAR
TAF AMD
KFAR 261318Z 2613/2712 35013KT 3SM -SN OVC007
      TEMPO 2613/2615 5SM -SN OVC015
     FM261500 35012KT P6SM SCT025
     FM261700 35010KT P6SM FEW020=

USA.gov is the U.S. government's official web portal to all federal, state and local government web resources and services.